createdAt,value
2023-01-08T00:01:39.012Z,12.70
2023-01-08T00:04:07.650Z,13.52
2023-01-08T00:06:37.779Z,13.88
2023-01-08T00:09:06.270Z,15.68
2023-01-08T00:11:34.731Z,14.57
2023-01-08T00:14:03.209Z,14.88
2023-01-08T00:16:32.698Z,13.15
2023-01-08T00:19:01.225Z,13.30
2023-01-08T00:21:30.070Z,13.68
2023-01-08T00:23:59.958Z,13.80
2023-01-08T00:26:28.401Z,13.95
2023-01-08T00:28:56.904Z,13.70
2023-01-08T00:31:25.667Z,14.48
2023-01-08T00:33:54.158Z,12.07
2023-01-08T00:36:22.716Z,13.15
2023-01-08T00:38:51.333Z,14.25
2023-01-08T00:41:21.159Z,13.57
2023-01-08T00:43:49.552Z,14.13
2023-01-08T00:46:18.158Z,13.07
2023-01-08T00:48:46.653Z,14.35
2023-01-08T00:51:15.144Z,14.80
2023-01-08T00:53:43.624Z,15.43
2023-01-08T00:56:12.499Z,14.15
2023-01-08T00:58:42.308Z,15.50
2023-01-08T01:01:13.657Z,13.95
2023-01-08T01:03:42.909Z,15.30
2023-01-08T01:06:14.438Z,15.20
2023-01-08T01:08:44.387Z,14.65
2023-01-08T01:11:19.738Z,15.27
2023-01-08T01:13:50.119Z,15.35
2023-01-08T01:16:18.886Z,16.35
2023-01-08T01:18:47.538Z,13.82
2023-01-08T01:21:24.057Z,15.35
2023-01-08T01:23:55.075Z,14.45
2023-01-08T01:26:24.863Z,14.70
2023-01-08T01:28:56.815Z,16.35
2023-01-08T01:31:26.944Z,15.88
2023-01-08T01:33:55.533Z,16.02
2023-01-08T01:36:25.747Z,14.23
2023-01-08T01:38:57.274Z,15.45
2023-01-08T01:41:29.662Z,14.25
2023-01-08T01:44:21.176Z,15.88
2023-01-08T01:46:51.119Z,15.07
2023-01-08T01:49:23.729Z,16.50
2023-01-08T01:52:00.997Z,14.43
2023-01-08T01:54:30.830Z,16.08
2023-01-08T01:57:00.773Z,16.20
2023-01-08T01:59:30.868Z,15.48
2023-01-08T02:02:00.618Z,15.02
2023-01-08T02:04:29.239Z,15.75
2023-01-08T02:07:05.597Z,16.33
2023-01-08T02:09:44.356Z,15.48
2023-01-08T02:12:19.973Z,15.45
2023-01-08T02:15:04.236Z,14.35
2023-01-08T02:17:41.138Z,14.27
2023-01-08T02:20:14.969Z,15.25
2023-01-08T02:22:59.422Z,16.20
2023-01-08T02:25:41.901Z,17.10
2023-01-08T02:28:15.894Z,13.38
2023-01-08T02:30:47.750Z,14.77
2023-01-08T02:33:16.165Z,14.70
2023-01-08T02:35:53.353Z,15.20
2023-01-08T02:38:22.926Z,14.95
2023-01-08T02:40:58.282Z,15.38
2023-01-08T02:43:37.256Z,15.43
2023-01-08T02:46:07.721Z,15.73
2023-01-08T02:48:41.196Z,14.75
2023-01-08T02:51:17.622Z,13.45
2023-01-08T02:53:51.431Z,14.98
2023-01-08T02:56:23.590Z,13.95
2023-01-08T02:58:55.305Z,11.80
2023-01-08T03:01:27.405Z,14.30
2023-01-08T03:04:03.284Z,15.90
2023-01-08T03:06:33.134Z,15.15
2023-01-08T03:09:02.215Z,15.95
2023-01-08T03:11:40.209Z,17.83
2023-01-08T03:14:16.854Z,16.00
2023-01-08T03:16:50.032Z,14.88
2023-01-08T03:19:23.279Z,15.05
2023-01-08T03:21:53.821Z,13.77
2023-01-08T03:24:27.087Z,17.08
2023-01-08T03:27:02.007Z,15.82
2023-01-08T03:29:32.908Z,15.30
2023-01-08T03:32:07.691Z,15.65
2023-01-08T03:34:39.154Z,15.32
2023-01-08T03:37:10.953Z,15.02
2023-01-08T03:39:45.458Z,14.13
2023-01-08T03:42:18.190Z,15.88
2023-01-08T03:44:48.344Z,15.10
2023-01-08T03:47:17.539Z,16.35
2023-01-08T03:49:47.234Z,14.98
2023-01-08T03:52:24.602Z,13.43
2023-01-08T03:54:53.192Z,16.00
2023-01-08T03:57:22.010Z,17.65
2023-01-08T03:59:51.997Z,14.25
2023-01-08T04:02:20.648Z,14.05
2023-01-08T04:04:49.708Z,14.45
2023-01-08T04:07:18.161Z,13.80
2023-01-08T04:09:47.141Z,16.17
2023-01-08T04:12:15.528Z,14.55
2023-01-08T04:14:43.916Z,14.23
2023-01-08T04:17:15.404Z,16.00
2023-01-08T04:19:43.829Z,15.05
2023-01-08T04:22:12.618Z,15.10
2023-01-08T04:24:40.993Z,13.52
2023-01-08T04:27:09.379Z,14.40
2023-01-08T04:29:37.806Z,14.80
2023-01-08T04:32:06.424Z,12.82
2023-01-08T04:34:36.219Z,14.80
2023-01-08T04:37:04.653Z,14.60
2023-01-08T04:39:33.052Z,14.07
2023-01-08T04:42:01.589Z,12.77
2023-01-08T04:44:30.034Z,14.18
2023-01-08T04:46:58.399Z,14.50
2023-01-08T04:49:26.823Z,13.93
2023-01-08T04:51:56.569Z,12.95
2023-01-08T04:54:24.925Z,13.00
2023-01-08T04:56:53.691Z,14.00
2023-01-08T04:59:22.060Z,13.85
2023-01-08T05:01:50.619Z,13.38
2023-01-08T05:04:19.059Z,13.52
2023-01-08T05:06:47.442Z,14.23
2023-01-08T05:09:17.202Z,15.52
2023-01-08T05:11:45.592Z,13.88
2023-01-08T05:14:13.943Z,14.45
2023-01-08T05:16:42.362Z,12.93
2023-01-08T05:19:10.742Z,14.57
2023-01-08T05:21:39.167Z,14.45
2023-01-08T05:24:09.318Z,12.52
2023-01-08T05:26:39.155Z,15.38
2023-01-08T05:29:07.527Z,12.90
2023-01-08T05:31:36.463Z,13.18
2023-01-08T05:34:04.825Z,14.77
2023-01-08T05:36:33.231Z,13.98
2023-01-08T05:39:01.654Z,14.95
2023-01-08T05:41:30.044Z,14.07
2023-01-08T05:43:59.793Z,13.65
2023-01-08T05:46:28.265Z,14.52
2023-01-08T05:48:56.749Z,15.50
2023-01-08T05:51:25.145Z,13.20
2023-01-08T05:53:53.576Z,11.80
2023-01-08T05:56:22.416Z,13.95
2023-01-08T05:58:50.795Z,12.50
2023-01-08T06:01:20.611Z,13.57
2023-01-08T06:03:49.047Z,15.35
2023-01-08T06:06:18.379Z,14.75
2023-01-08T06:08:46.772Z,13.15
2023-01-08T06:11:15.319Z,14.38
2023-01-08T06:13:45.151Z,11.02
2023-01-08T06:16:13.817Z,15.18
2023-01-08T06:18:43.658Z,13.15
2023-01-08T06:21:13.367Z,11.38
2023-01-08T06:23:42.019Z,11.50
2023-01-08T06:26:10.583Z,11.15
2023-01-08T06:28:38.960Z,13.77
2023-01-08T06:31:07.427Z,14.07
2023-01-08T06:33:35.887Z,12.80
2023-01-08T06:36:06.859Z,12.85
2023-01-08T06:38:38.196Z,14.30
2023-01-08T06:41:08.812Z,13.05
2023-01-08T06:43:37.995Z,14.30
2023-01-08T06:46:07.393Z,14.10
2023-01-08T06:48:35.933Z,13.05
2023-01-08T06:51:07.115Z,13.20
2023-01-08T06:53:35.897Z,12.80
2023-01-08T06:56:07.573Z,11.95
2023-01-08T06:58:36.063Z,12.85
2023-01-08T07:01:04.646Z,14.07
2023-01-08T07:03:33.193Z,11.27
2023-01-08T07:06:06.069Z,13.55
2023-01-08T07:08:34.498Z,13.10
2023-01-08T07:11:04.997Z,12.35
2023-01-08T07:13:33.447Z,11.30
2023-01-08T07:16:08.243Z,14.35
2023-01-08T07:18:37.530Z,13.43
2023-01-08T07:21:08.976Z,13.07
2023-01-08T07:23:38.467Z,11.65
2023-01-08T07:26:08.587Z,14.50
2023-01-08T07:28:37.003Z,15.52
2023-01-08T07:31:07.425Z,12.77
2023-01-08T07:33:36.304Z,14.52
2023-01-08T07:36:07.130Z,12.15
2023-01-08T07:38:35.545Z,13.30
2023-01-08T07:41:04.683Z,10.45
2023-01-08T07:43:33.139Z,10.25
2023-01-08T07:46:04.342Z,11.23
2023-01-08T07:48:33.021Z,12.20
2023-01-08T07:51:08.686Z,13.07
2023-01-08T07:53:38.576Z,11.15
2023-01-08T07:56:09.973Z,11.40
2023-01-08T07:58:39.597Z,11.77
2023-01-08T08:01:12.575Z,9.85
2023-01-08T08:03:41.472Z,10.60
2023-01-08T08:06:11.651Z,12.25
2023-01-08T08:08:42.076Z,13.15
2023-01-08T08:11:10.809Z,12.15
2023-01-08T08:13:42.617Z,12.15
2023-01-08T08:16:11.212Z,13.90
2023-01-08T08:18:39.656Z,13.77
2023-01-08T08:21:08.089Z,13.32
2023-01-08T08:23:37.836Z,13.10
2023-01-08T08:26:07.853Z,13.07
2023-01-08T08:28:36.259Z,14.52
2023-01-08T08:31:04.727Z,12.85
2023-01-08T08:33:33.235Z,12.45
2023-01-08T08:36:01.687Z,12.43
2023-01-08T08:38:30.110Z,15.90
2023-01-08T08:40:59.896Z,12.23
2023-01-08T08:43:28.422Z,12.90
2023-01-08T08:45:57.438Z,13.57
2023-01-08T08:48:26.102Z,12.98
2023-01-08T08:50:54.487Z,12.82
2023-01-08T08:53:22.897Z,12.57
2023-01-08T08:55:51.328Z,13.60
2023-01-08T08:58:21.103Z,11.95
2023-01-08T09:00:49.531Z,14.07
2023-01-08T09:03:18.711Z,11.30
2023-01-08T09:05:47.267Z,13.82
2023-01-08T09:08:15.675Z,13.27
2023-01-08T09:10:44.062Z,11.70
2023-01-08T09:13:13.164Z,12.68
2023-01-08T09:15:42.935Z,10.88
2023-01-08T09:18:11.736Z,12.65
2023-01-08T09:20:40.209Z,11.95
2023-01-08T09:23:08.640Z,12.27
2023-01-08T09:25:37.060Z,11.98
2023-01-08T09:28:08.372Z,11.40
2023-01-08T09:30:37.053Z,12.75
2023-01-08T09:33:07.548Z,11.52
2023-01-08T09:35:36.117Z,12.27
2023-01-08T09:38:04.575Z,12.60
2023-01-08T09:40:40.548Z,10.73
2023-01-08T09:43:17.529Z,11.43
2023-01-08T09:45:52.709Z,10.90
2023-01-08T09:48:27.752Z,13.45
2023-01-08T09:50:56.355Z,12.48
2023-01-08T09:53:25.606Z,11.52
2023-01-08T09:56:09.617Z,11.30
2023-01-08T09:58:41.097Z,14.18
2023-01-08T10:01:13.904Z,11.95
2023-01-08T10:03:47.929Z,12.95
2023-01-08T10:06:18.100Z,12.63
2023-01-08T10:08:47.347Z,10.45
2023-01-08T10:11:16.592Z,11.93
2023-01-08T10:13:50.657Z,9.95
2023-01-08T10:16:30.513Z,12.15
2023-01-08T10:19:01.846Z,10.88
2023-01-08T10:21:33.841Z,12.05
2023-01-08T10:24:02.259Z,11.00
2023-01-08T10:26:32.719Z,10.13
2023-01-08T10:29:19.231Z,10.07
2023-01-08T10:31:51.956Z,11.77
2023-01-08T10:34:32.629Z,11.18
2023-01-08T10:37:01.684Z,12.25
2023-01-08T10:39:33.180Z,11.00
2023-01-08T10:42:07.909Z,12.73
2023-01-08T10:44:36.966Z,11.23
2023-01-08T10:47:07.230Z,10.52
2023-01-08T10:49:41.988Z,10.40
2023-01-08T10:52:33.011Z,10.80
2023-01-08T10:55:22.528Z,11.70
2023-01-08T10:58:00.888Z,12.00
2023-01-08T11:00:32.654Z,11.75
2023-01-08T11:03:03.857Z,13.45
2023-01-08T11:05:36.735Z,11.82
2023-01-08T11:08:09.636Z,10.43
2023-01-08T11:10:39.090Z,10.15
2023-01-08T11:13:09.203Z,9.80
2023-01-08T11:15:40.323Z,11.02
2023-01-08T11:18:20.412Z,10.63
2023-01-08T11:20:52.184Z,12.35
2023-01-08T11:23:24.155Z,11.90
2023-01-08T11:26:06.531Z,9.88
2023-01-08T11:28:51.922Z,9.25
2023-01-08T11:31:30.176Z,10.88
2023-01-08T11:34:08.908Z,9.85
2023-01-08T11:36:54.016Z,8.90
2023-01-08T11:39:22.511Z,11.05
2023-01-08T11:42:21.279Z,9.32
2023-01-08T11:45:06.542Z,9.32
2023-01-08T11:48:04.049Z,9.32
2023-01-08T11:50:42.207Z,11.48
2023-01-08T11:53:30.301Z,8.70
2023-01-08T11:56:16.152Z,9.73
2023-01-08T11:59:06.629Z,9.30
2023-01-08T12:01:50.043Z,8.02
2023-01-08T12:04:59.416Z,8.18
2023-01-08T12:07:37.579Z,8.40
2023-01-08T12:10:22.210Z,9.32
2023-01-08T12:13:07.840Z,8.07
2023-01-08T12:15:50.328Z,10.35
2023-01-08T12:18:36.941Z,9.27
2023-01-08T12:21:16.542Z,8.98
2023-01-08T12:24:24.892Z,9.27
2023-01-08T12:27:03.022Z,7.78
2023-01-08T12:30:01.529Z,9.55
2023-01-08T12:32:36.401Z,10.13
2023-01-08T12:35:12.365Z,9.48
2023-01-08T12:37:51.697Z,8.90
2023-01-08T12:40:27.007Z,9.85
2023-01-08T12:43:03.077Z,11.18
2023-01-08T12:45:37.975Z,9.98
2023-01-08T12:48:11.985Z,10.15
2023-01-08T12:50:58.990Z,9.98
2023-01-08T12:53:41.813Z,9.68
2023-01-08T12:56:17.201Z,9.93
2023-01-08T12:59:09.955Z,10.68
2023-01-08T13:01:48.808Z,12.10
2023-01-08T13:04:17.695Z,11.13
2023-01-08T13:06:59.714Z,10.93
2023-01-08T13:09:28.840Z,10.93
2023-01-08T13:12:00.779Z,9.18
2023-01-08T13:14:41.381Z,9.98
2023-01-08T13:17:20.145Z,11.77
2023-01-08T13:19:55.803Z,11.02
2023-01-08T13:22:28.615Z,10.80
2023-01-08T13:25:28.274Z,10.77
2023-01-08T13:27:56.803Z,10.55
2023-01-08T13:30:39.374Z,9.50
2023-01-08T13:33:43.263Z,10.18
2023-01-08T13:36:22.182Z,9.90
2023-01-08T13:39:03.254Z,10.68
2023-01-08T13:41:33.268Z,9.80
2023-01-08T13:44:07.101Z,10.13
2023-01-08T13:46:41.059Z,9.30
2023-01-08T13:49:11.796Z,8.23
2023-01-08T13:51:44.976Z,9.10
2023-01-08T13:54:29.244Z,10.00
2023-01-08T13:57:13.183Z,9.10
2023-01-08T13:59:44.753Z,9.90
2023-01-08T14:02:33.699Z,8.63
2023-01-08T14:05:04.274Z,9.57
2023-01-08T14:07:32.780Z,9.23
2023-01-08T14:10:10.897Z,7.70
2023-01-08T14:12:39.470Z,8.98
2023-01-08T14:15:11.570Z,9.02
2023-01-08T14:17:45.769Z,8.40
2023-01-08T14:20:14.438Z,8.30
2023-01-08T14:22:44.040Z,7.90
2023-01-08T14:25:20.031Z,7.43
2023-01-08T14:28:02.041Z,8.10
2023-01-08T14:30:31.165Z,11.75
2023-01-08T14:33:01.902Z,8.73
2023-01-08T14:35:34.704Z,6.82
2023-01-08T14:38:05.740Z,8.05
2023-01-08T14:40:40.673Z,7.75
2023-01-08T14:43:12.665Z,8.57
2023-01-08T14:45:47.585Z,8.95
2023-01-08T14:48:23.864Z,8.57
2023-01-08T14:51:04.573Z,8.70
2023-01-08T14:53:37.681Z,9.50
2023-01-08T14:56:08.015Z,9.75
2023-01-08T14:58:40.324Z,8.52
2023-01-08T15:01:16.033Z,7.75
2023-01-08T15:03:48.034Z,7.20
2023-01-08T15:06:27.335Z,7.80
2023-01-08T15:08:55.804Z,6.00
2023-01-08T15:11:26.850Z,7.60
2023-01-08T15:13:57.303Z,6.03
2023-01-08T15:16:32.088Z,7.13
2023-01-08T15:19:08.590Z,7.15
2023-01-08T15:21:37.785Z,6.38
2023-01-08T15:24:08.749Z,8.25
2023-01-08T15:26:42.949Z,6.95
2023-01-08T15:29:20.576Z,8.90
2023-01-08T15:31:50.627Z,6.53
2023-01-08T15:34:22.176Z,8.68
2023-01-08T15:36:50.692Z,6.68
2023-01-08T15:39:19.094Z,6.43
2023-01-08T15:42:04.807Z,8.75
2023-01-08T15:44:33.258Z,7.00
2023-01-08T15:47:01.672Z,9.43
2023-01-08T15:49:31.425Z,6.97
2023-01-08T15:52:00.082Z,6.85
2023-01-08T15:54:28.532Z,8.38
2023-01-08T15:56:56.936Z,8.80
2023-01-08T15:59:25.520Z,7.93
2023-01-08T16:01:54.807Z,8.02
2023-01-08T16:04:24.135Z,8.88
2023-01-08T16:06:53.944Z,8.52
2023-01-08T16:09:22.882Z,8.40
2023-01-08T16:11:52.691Z,9.40
2023-01-08T16:14:21.383Z,7.93
2023-01-08T16:16:50.128Z,9.35
2023-01-08T16:19:19.209Z,9.05
2023-01-08T16:21:50.194Z,8.73
2023-01-08T16:24:20.345Z,9.27
2023-01-08T16:26:50.958Z,8.35
2023-01-08T16:29:20.044Z,7.88
2023-01-08T16:31:49.996Z,8.65
2023-01-08T16:34:20.219Z,10.93
2023-01-08T16:36:50.644Z,10.45
2023-01-08T16:39:21.311Z,9.73
2023-01-08T16:41:51.486Z,8.93
2023-01-08T16:44:22.929Z,7.72
2023-01-08T16:46:52.864Z,9.30
2023-01-08T16:49:21.569Z,7.97
2023-01-08T16:51:50.438Z,8.25
2023-01-08T16:54:22.055Z,7.43
2023-01-08T16:56:51.451Z,10.18
2023-01-08T16:59:23.706Z,9.05
2023-01-08T17:01:52.953Z,6.32
2023-01-08T17:04:22.231Z,8.48
2023-01-08T17:06:51.117Z,7.93
2023-01-08T17:09:21.272Z,8.95
2023-01-08T17:11:50.189Z,8.40
2023-01-08T17:14:18.740Z,8.50
2023-01-08T17:16:49.510Z,8.40
2023-01-08T17:19:18.996Z,7.57
2023-01-08T17:21:48.189Z,8.25
2023-01-08T17:24:17.232Z,8.77
2023-01-08T17:26:48.136Z,9.75
2023-01-08T17:29:18.059Z,7.57
2023-01-08T17:31:48.511Z,9.77
2023-01-08T17:34:18.211Z,10.60
2023-01-08T17:36:47.851Z,9.73
2023-01-08T17:39:17.144Z,7.85
2023-01-08T17:42:01.473Z,7.40
2023-01-08T17:44:31.520Z,8.80
2023-01-08T17:47:00.640Z,7.63
2023-01-08T17:49:31.097Z,9.30
2023-01-08T17:52:00.520Z,7.57
2023-01-08T17:54:31.357Z,7.82
2023-01-08T17:57:02.821Z,8.00
2023-01-08T17:59:32.221Z,6.88
2023-01-08T18:02:01.791Z,13.13
2023-01-08T18:04:35.201Z,8.38
2023-01-08T18:07:04.593Z,7.32
2023-01-08T18:09:36.653Z,8.10
2023-01-08T18:12:08.463Z,9.68
2023-01-08T18:14:39.223Z,8.65
2023-01-08T18:17:08.574Z,9.02
2023-01-08T18:19:37.318Z,9.48
2023-01-08T18:22:06.803Z,7.43
2023-01-08T18:24:36.164Z,7.88
2023-01-08T18:27:07.170Z,6.80
2023-01-08T18:29:37.819Z,6.25
2023-01-08T18:32:07.140Z,7.68
2023-01-08T18:34:39.690Z,6.90
2023-01-08T18:37:11.783Z,6.95
2023-01-08T18:39:40.783Z,6.97
2023-01-08T18:42:27.120Z,6.57
2023-01-08T18:44:56.885Z,6.50
2023-01-08T18:47:29.169Z,6.03
2023-01-08T18:50:03.151Z,5.93
2023-01-08T18:52:32.956Z,6.70
2023-01-08T18:55:01.714Z,7.20
2023-01-08T18:57:32.064Z,6.07
2023-01-08T19:00:01.520Z,6.70
2023-01-08T19:02:32.004Z,7.43
2023-01-08T19:05:03.076Z,5.53
2023-01-08T19:07:34.291Z,5.75
2023-01-08T19:10:03.893Z,7.68
2023-01-08T19:12:35.261Z,7.13
2023-01-08T19:15:05.203Z,6.60
2023-01-08T19:17:35.234Z,7.28
2023-01-08T19:20:05.819Z,7.10
2023-01-08T19:22:34.896Z,6.53
2023-01-08T19:25:03.641Z,7.88
2023-01-08T19:27:35.084Z,9.50
2023-01-08T19:30:06.270Z,8.20
2023-01-08T19:32:35.500Z,7.30
2023-01-08T19:35:05.206Z,5.72
2023-01-08T19:37:34.730Z,7.18
2023-01-08T19:40:06.804Z,9.98
2023-01-08T19:42:57.138Z,8.00
2023-01-08T19:45:27.091Z,9.55
2023-01-08T19:47:56.381Z,9.00
2023-01-08T19:50:25.821Z,8.13
2023-01-08T19:52:57.004Z,6.63
2023-01-08T19:55:27.562Z,8.52
2023-01-08T19:57:59.967Z,8.30
2023-01-08T20:00:30.480Z,9.85
2023-01-08T20:03:00.715Z,8.07
2023-01-08T20:05:30.555Z,7.80
2023-01-08T20:08:00.399Z,8.38
2023-01-08T20:10:31.078Z,8.75
2023-01-08T20:13:02.452Z,9.18
2023-01-08T20:15:32.823Z,7.05
2023-01-08T20:18:02.379Z,8.85
2023-01-08T20:20:32.631Z,9.13
2023-01-08T20:23:02.277Z,10.80
2023-01-08T20:25:31.373Z,7.43
2023-01-08T20:28:05.309Z,9.55
2023-01-08T20:30:33.969Z,9.30
2023-01-08T20:33:05.058Z,10.80
2023-01-08T20:35:37.526Z,11.18
2023-01-08T20:38:06.860Z,50.83
2023-01-08T20:40:38.821Z,14.80
2023-01-08T20:43:09.454Z,10.63
2023-01-08T20:45:43.123Z,11.02
2023-01-08T20:48:12.724Z,10.15
2023-01-08T20:50:47.069Z,9.27
2023-01-08T20:53:16.997Z,9.82
2023-01-08T20:55:46.393Z,10.00
2023-01-08T20:58:17.260Z,8.73
2023-01-08T21:00:46.739Z,10.02
2023-01-08T21:03:16.051Z,11.40
2023-01-08T21:05:44.781Z,9.05
2023-01-08T21:08:14.014Z,11.70
2023-01-08T21:10:42.863Z,9.38
2023-01-08T21:13:11.833Z,10.43
2023-01-08T21:15:41.732Z,8.77
2023-01-08T21:18:10.723Z,12.10
2023-01-08T21:20:39.652Z,11.27
2023-01-08T21:23:08.275Z,9.80
2023-01-08T21:25:36.981Z,10.82
2023-01-08T21:28:06.248Z,10.52
2023-01-08T21:30:35.058Z,10.50
2023-01-08T21:33:05.151Z,11.15
2023-01-08T21:35:35.305Z,11.02
2023-01-08T21:38:03.761Z,11.65
2023-01-08T21:40:32.328Z,12.63
2023-01-08T21:43:18.586Z,10.90
2023-01-08T21:45:52.602Z,13.02
2023-01-08T21:48:22.542Z,9.70
2023-01-08T21:50:51.039Z,9.23
2023-01-08T21:53:36.167Z,8.98
2023-01-08T21:56:06.153Z,8.57
2023-01-08T21:58:34.756Z,7.38
2023-01-08T22:01:03.222Z,7.97
2023-01-08T22:03:33.154Z,9.15
2023-01-08T22:06:04.222Z,8.77
2023-01-08T22:08:33.173Z,8.30
2023-01-08T22:11:03.163Z,9.10
2023-01-08T22:13:32.600Z,8.18
2023-01-08T22:16:06.151Z,8.73
2023-01-08T22:18:36.446Z,7.38
2023-01-08T22:21:07.477Z,7.07
2023-01-08T22:23:36.937Z,6.90
2023-01-08T22:26:06.929Z,7.47
2023-01-08T22:28:39.176Z,7.68
2023-01-08T22:31:09.187Z,7.85
2023-01-08T22:33:40.018Z,7.68
2023-01-08T22:36:12.242Z,8.50
2023-01-08T22:38:41.103Z,7.43
2023-01-08T22:41:17.580Z,8.15
2023-01-08T22:43:46.113Z,7.65
2023-01-08T22:46:17.135Z,9.38
2023-01-08T22:48:47.005Z,9.35
2023-01-08T22:51:15.497Z,7.50
2023-01-08T22:53:43.963Z,7.78
2023-01-08T22:56:13.269Z,8.18
2023-01-08T22:58:42.911Z,8.93
2023-01-08T23:01:16.498Z,8.35
2023-01-08T23:03:49.007Z,7.32
2023-01-08T23:06:19.690Z,9.18
2023-01-08T23:08:48.695Z,7.53
2023-01-08T23:11:20.469Z,7.82
2023-01-08T23:13:51.087Z,7.68
2023-01-08T23:16:24.493Z,7.93
2023-01-08T23:18:56.018Z,7.28
2023-01-08T23:21:27.362Z,7.32
2023-01-08T23:23:55.846Z,8.40
2023-01-08T23:26:27.132Z,8.75
2023-01-08T23:28:57.219Z,7.15
2023-01-08T23:31:28.544Z,7.15
2023-01-08T23:33:58.725Z,8.02
2023-01-08T23:36:27.805Z,6.97
2023-01-08T23:38:57.601Z,7.95
2023-01-08T23:41:33.744Z,7.45
2023-01-08T23:44:05.801Z,7.00
2023-01-08T23:46:34.577Z,7.60
2023-01-08T23:49:04.553Z,7.03
2023-01-08T23:51:33.000Z,7.47
2023-01-08T23:54:01.598Z,8.60
2023-01-08T23:56:30.160Z,7.65
2023-01-08T23:58:59.162Z,8.57
